Terminal Aerodrome Forecast
Issued by NWS Pendleton, OR

Home | Current Version | Previous Version | Text Only | Print | Product List | Glossary On
Versions: 1 2 3 4 5 6 7 8 9 10 11 12 13 14 15
000
FTUS46 KPDT 292339 AAA
TAFPDT
TAF AMD
KPDT 292339Z 3000/3024 06010KT P6SM -SHRA SCT050 BKN100
      TEMPO 3000/3002 -TSRA BKN050CB
     FM300500 VRB05KT P6SM VCSH SCT080 BKN100
     FM300900 12005KT P6SM FEW080 BKN100
     FM301800 27009KT P6SM SCT120=

USA.gov is the U.S. government's official web portal to all federal, state and local government web resources and services.